Time;durP1;ratioP1;P1;durP2;ratioP2;P2;SDS_P1;SDS_P2;PMS_P1;PMS_P2;Temp;Humidity;BMP_temperature;BMP_pressure;BME280_temperature;BME280_humidity;BME280_pressure;Samples;Min_cycle;Max_cycle;Signal;HPM_P1;HPM_P2
2023/03/15 00:00:48;;;;;;;37.30;24.67;;;2.70;99.90;;;;;;5091999;28;20208;-52
2023/03/15 00:03:16;;;;;;;113.60;101.23;;;2.60;99.90;;;;;;5091505;28;20264;-52
2023/03/15 00:05:47;;;;;;;110.10;99.33;;;2.60;99.90;;;;;;5091941;28;20204;-52
2023/03/15 00:08:16;;;;;;;185.43;131.17;;;2.60;99.90;;;;;;5091530;28;20205;-52
2023/03/15 00:10:45;;;;;;;137.40;122.50;;;2.40;99.90;;;;;;5091675;28;20232;-52
2023/03/15 00:13:14;;;;;;;142.80;99.10;;;2.50;99.90;;;;;;5091011;28;20268;-52
2023/03/15 00:15:46;;;;;;;150.20;135.47;;;2.40;99.90;;;;;;5091637;28;20307;-52
2023/03/15 00:18:15;;;;;;;192.20;172.93;;;2.40;99.90;;;;;;5091514;28;20575;-52
2023/03/15 00:20:43;;;;;;;232.70;173.03;;;2.30;99.90;;;;;;5091075;28;20873;-51
2023/03/15 00:23:13;;;;;;;234.57;156.97;;;2.30;99.90;;;;;;5091367;28;20407;-52
2023/03/15 00:25:43;;;;;;;131.30;118.67;;;2.30;99.90;;;;;;5091079;28;20212;-52
2023/03/15 00:28:11;;;;;;;113.63;89.20;;;2.20;99.90;;;;;;5090896;28;20572;-52
2023/03/15 00:30:40;;;;;;;131.13;118.73;;;2.20;99.90;;;;;;5090998;28;20696;-52
2023/03/15 00:33:08;;;;;;;152.63;140.07;;;2.20;99.90;;;;;;5091108;28;20315;-52
2023/03/15 00:35:39;;;;;;;260.97;231.97;;;2.10;99.90;;;;;;5090641;28;20239;-52
2023/03/15 00:38:08;;;;;;;166.50;152.53;;;2.10;99.90;;;;;;5091337;28;20262;-52
2023/03/15 00:40:38;;;;;;;172.50;157.70;;;2.10;99.90;;;;;;5091306;28;20232;-52
2023/03/15 00:43:06;;;;;;;163.70;129.73;;;2.10;99.90;;;;;;5090973;28;20284;-52
2023/03/15 00:45:34;;;;;;;80.00;73.37;;;2.10;99.90;;;;;;5090842;28;20863;-52
2023/03/15 00:48:01;;;;;;;60.43;45.10;;;2.00;99.90;;;;;;5090679;28;20216;-52
2023/03/15 00:50:29;;;;;;;62.77;55.50;;;2.00;99.90;;;;;;5090707;28;20273;-52
2023/03/15 00:52:57;;;;;;;70.90;63.57;;;2.00;99.90;;;;;;5090600;28;20276;-52
2023/03/15 00:55:25;;;;;;;297.83;153.00;;;1.90;99.90;;;;;;5089960;28;20696;-52
2023/03/15 00:57:55;;;;;;;87.90;79.13;;;1.90;99.90;;;;;;5090394;28;20242;-52
2023/03/15 01:00:24;;;;;;;162.57;148.27;;;1.90;99.90;;;;;;5090443;28;20285;-52
2023/03/15 01:02:52;;;;;;;56.80;51.10;;;1.90;99.90;;;;;;5090471;28;20229;-52
2023/03/15 01:05:21;;;;;;;117.80;105.30;;;1.90;99.90;;;;;;5089936;28;20196;-52
2023/03/15 01:07:50;;;;;;;93.17;83.80;;;2.00;99.90;;;;;;5090217;28;20680;-52
2023/03/15 01:10:20;;;;;;;111.90;99.97;;;1.90;99.90;;;;;;5090044;28;20284;-52
2023/03/15 01:12:48;;;;;;;102.70;72.97;;;2.00;99.90;;;;;;5090418;28;20285;-51
2023/03/15 01:15:17;;;;;;;188.77;158.27;;;1.90;99.90;;;;;;5090048;28;20303;-52
2023/03/15 01:17:45;;;;;;;162.43;149.03;;;2.00;99.90;;;;;;5090767;28;20777;-51
2023/03/15 01:20:14;;;;;;;203.43;186.33;;;2.00;99.90;;;;;;5089939;28;20771;-52
2023/03/15 01:22:42;;;;;;;167.00;149.23;;;2.00;99.90;;;;;;5090223;28;20685;-51
2023/03/15 01:25:10;;;;;;;127.23;117.70;;;1.90;99.90;;;;;;5090341;28;20677;-52
2023/03/15 01:27:38;;;;;;;62.97;56.10;;;1.90;99.90;;;;;;5089703;28;20701;-52
2023/03/15 01:30:08;;;;;;;197.17;157.03;;;1.90;99.90;;;;;;5089721;28;20291;-51
2023/03/15 01:32:37;;;;;;;286.23;203.40;;;1.90;99.90;;;;;;5090041;28;20262;-52
2023/03/15 01:35:06;;;;;;;136.97;124.70;;;1.90;99.90;;;;;;5090404;28;20204;-52
2023/03/15 01:37:34;;;;;;;130.70;120.10;;;2.00;99.90;;;;;;5089788;28;20206;-52
2023/03/15 01:40:05;;;;;;;162.07;146.83;;;2.10;99.90;;;;;;5089750;28;20310;-52
2023/03/15 01:42:33;;;;;;;124.23;113.60;;;2.10;99.90;;;;;;5088873;28;20771;-52
2023/03/15 01:45:01;;;;;;;135.03;121.63;;;2.10;99.90;;;;;;5089897;28;20212;-52
2023/03/15 01:47:31;;;;;;;230.73;208.87;;;2.20;99.90;;;;;;5089806;28;20308;-52
2023/03/15 01:50:05;;;;;;;149.43;97.67;;;2.20;99.90;;;;;;5089570;28;20721;-52
2023/03/15 01:52:37;;;;;;;241.27;220.83;;;2.30;99.90;;;;;;5089723;28;20316;-52
2023/03/15 01:55:10;;;;;;;268.20;213.80;;;2.30;99.90;;;;;;5089651;28;20299;-51
2023/03/15 01:57:41;;;;;;;214.10;195.33;;;2.20;99.90;;;;;;5089684;28;20727;-52
2023/03/15 02:00:13;;;;;;;215.63;185.87;;;2.20;99.90;;;;;;5089420;28;20835;-52
2023/03/15 02:02:46;;;;;;;176.13;157.93;;;2.20;99.90;;;;;;5089585;28;20332;-52
2023/03/15 02:05:21;;;;;;;278.07;247.43;;;2.20;99.90;;;;;;5089253;28;20205;-52
2023/03/15 02:07:53;;;;;;;206.63;184.17;;;2.20;99.90;;;;;;5088950;28;20280;-52
2023/03/15 02:10:27;;;;;;;300.43;245.53;;;2.20;99.90;;;;;;5089321;28;20576;-51
2023/03/15 02:12:57;;;;;;;139.93;129.70;;;2.10;99.90;;;;;;5088992;28;20327;-52
2023/03/15 02:15:25;;;;;;;193.87;177.90;;;2.10;99.90;;;;;;5089312;28;20214;-52
2023/03/15 02:17:53;;;;;;;329.07;295.33;;;2.10;99.90;;;;;;5089111;28;20288;-51
2023/03/15 02:20:34;;;;;;;132.73;120.27;;;2.10;99.90;;;;;;5089280;28;20600;-51
2023/03/15 02:23:05;;;;;;;147.07;133.63;;;2.00;99.90;;;;;;5089241;28;20229;-52
2023/03/15 02:25:40;;;;;;;258.20;230.47;;;2.10;99.90;;;;;;5089668;28;20292;-51
2023/03/15 02:28:13;;;;;;;135.10;121.77;;;2.20;99.90;;;;;;5089492;28;20192;-52
2023/03/15 02:30:42;;;;;;;218.57;196.77;;;2.20;99.90;;;;;;5069089;28;20291;-51
2023/03/15 02:33:15;;;;;;;223.97;202.30;;;2.30;99.90;;;;;;5075634;28;20951;-51
2023/03/15 02:35:43;;;;;;;203.27;184.70;;;2.30;99.90;;;;;;5088894;28;20303;-52
2023/03/15 02:38:11;;;;;;;191.07;171.73;;;2.40;99.90;;;;;;5089054;28;20703;-52
2023/03/15 02:40:39;;;;;;;116.67;105.40;;;2.40;99.90;;;;;;5088662;28;20232;-52
2023/03/15 02:43:13;;;;;;;195.03;174.00;;;2.40;99.90;;;;;;5088979;28;20255;-52
2023/03/15 02:45:41;;;;;;;169.77;124.97;;;2.50;99.90;;;;;;5089094;28;20901;-52
2023/03/15 02:48:10;;;;;;;549.00;235.43;;;2.40;99.90;;;;;;5089303;28;20213;-52
2023/03/15 02:50:39;;;;;;;109.70;99.03;;;2.40;99.90;;;;;;5088936;28;20227;-52
2023/03/15 02:53:07;;;;;;;167.60;126.93;;;2.40;99.90;;;;;;5088575;28;20321;-53
2023/03/15 02:55:35;;;;;;;174.30;156.13;;;2.40;99.90;;;;;;5088819;28;20308;-52
2023/03/15 02:58:03;;;;;;;149.33;133.23;;;2.50;99.90;;;;;;5088899;28;20651;-51
2023/03/15 03:00:32;;;;;;;181.50;162.97;;;2.50;99.90;;;;;;5088770;28;20677;-52
2023/03/15 03:03:00;;;;;;;151.73;94.90;;;2.60;99.90;;;;;;5088846;28;20777;-52
2023/03/15 03:05:28;;;;;;;56.73;50.73;;;2.60;99.90;;;;;;5088802;28;20301;-52
2023/03/15 03:07:57;;;;;;;148.93;73.20;;;2.50;99.90;;;;;;5088535;28;20606;-52
2023/03/15 03:10:25;;;;;;;73.37;62.13;;;2.50;99.90;;;;;;5089020;28;20207;-52
2023/03/15 03:12:53;;;;;;;339.70;112.33;;;2.40;99.90;;;;;;5088896;28;20322;-51
2023/03/15 03:15:21;;;;;;;270.77;121.50;;;2.40;99.90;;;;;;5089018;28;20235;-52
2023/03/15 03:17:51;;;;;;;98.70;64.03;;;2.30;99.90;;;;;;5091334;28;20296;-52
2023/03/15 03:20:19;;;;;;;74.20;53.73;;;2.40;99.90;;;;;;5092861;28;20292;-52
2023/03/15 03:22:47;;;;;;;162.93;81.20;;;2.40;99.90;;;;;;5092766;28;20760;-51
2023/03/15 03:25:15;;;;;;;120.77;69.17;;;2.50;99.90;;;;;;5092674;28;20208;-52
2023/03/15 03:27:43;;;;;;;131.10;74.03;;;2.40;99.90;;;;;;5093173;28;20299;-52
2023/03/15 03:30:14;;;;;;;105.07;68.20;;;2.50;99.90;;;;;;5092888;28;20573;-52
2023/03/15 03:32:42;;;;;;;89.73;56.47;;;2.50;99.90;;;;;;5092359;28;20640;-52
2023/03/15 03:35:11;;;;;;;143.37;110.60;;;2.50;99.90;;;;;;5092090;28;20299;-52
2023/03/15 03:37:42;;;;;;;82.57;50.70;;;2.50;99.90;;;;;;5092368;28;20304;-52
2023/03/15 03:40:12;;;;;;;190.63;109.17;;;2.40;99.90;;;;;;5092504;28;20254;-52
2023/03/15 03:42:40;;;;;;;172.77;53.63;;;2.40;99.90;;;;;;5091648;28;20818;-52
2023/03/15 03:45:09;;;;;;;93.13;72.93;;;2.40;99.90;;;;;;5091758;28;20295;-51
2023/03/15 03:47:37;;;;;;;131.30;67.17;;;2.40;99.90;;;;;;5088271;28;20303;-52
2023/03/15 03:50:06;;;;;;;96.53;56.00;;;2.50;99.90;;;;;;5089332;28;20212;-52
2023/03/15 03:52:35;;;;;;;362.10;104.10;;;2.50;99.90;;;;;;5092001;28;20260;-51
2023/03/15 03:55:03;;;;;;;262.63;109.83;;;2.50;99.90;;;;;;5092061;28;20248;-52
2023/03/15 03:57:31;;;;;;;145.83;64.27;;;2.50;99.90;;;;;;5092270;28;20231;-51
2023/03/15 03:59:59;;;;;;;56.63;24.10;;;2.40;99.90;;;;;;5091612;28;20205;-52
2023/03/15 04:02:27;;;;;;;91.33;56.63;;;2.50;99.90;;;;;;5091786;28;20295;-51
2023/03/15 04:04:55;;;;;;;237.60;92.43;;;2.50;99.90;;;;;;5091805;28;20285;-52
2023/03/15 04:07:23;;;;;;;144.77;74.03;;;2.40;99.90;;;;;;5091755;28;20298;-52
2023/03/15 04:09:53;;;;;;;80.37;53.13;;;2.40;99.90;;;;;;5091391;28;20583;-52
2023/03/15 04:12:21;;;;;;;73.70;35.87;;;2.40;99.90;;;;;;5091298;28;20306;-52
2023/03/15 04:14:50;;;;;;;183.87;104.20;;;2.50;99.90;;;;;;5091571;28;20578;-52
2023/03/15 04:17:18;;;;;;;286.80;96.23;;;2.50;99.90;;;;;;5091783;28;20237;-52
2023/03/15 04:19:46;;;;;;;192.77;101.20;;;2.50;99.90;;;;;;5091554;28;20633;-52
2023/03/15 04:22:15;;;;;;;84.23;63.40;;;2.50;99.90;;;;;;5091257;28;20251;-50
2023/03/15 04:24:43;;;;;;;81.07;47.67;;;2.50;99.90;;;;;;5091789;28;20255;-52
2023/03/15 04:27:13;;;;;;;84.63;60.43;;;2.50;99.90;;;;;;5091254;28;20237;-51
2023/03/15 04:29:42;;;;;;;102.40;72.47;;;2.50;99.90;;;;;;5090242;28;20734;-52
2023/03/15 04:32:11;;;;;;;191.83;107.07;;;2.60;99.90;;;;;;5091331;28;20295;-52
2023/03/15 04:34:39;;;;;;;176.00;65.33;;;2.60;99.90;;;;;;5091186;28;20200;-52
2023/03/15 04:37:07;;;;;;;180.77;90.97;;;2.50;99.90;;;;;;5091301;28;20291;-51
2023/03/15 04:39:35;;;;;;;148.10;64.43;;;2.50;99.90;;;;;;5091181;28;20295;-51
2023/03/15 04:42:03;;;;;;;208.63;69.43;;;2.60;99.90;;;;;;5091027;28;20338;-52
2023/03/15 04:44:33;;;;;;;113.73;50.70;;;2.50;99.90;;;;;;5090898;28;20292;-52
2023/03/15 04:47:00;;;;;;;469.27;85.30;;;2.60;99.90;;;;;;5091025;28;20290;-51
2023/03/15 04:49:28;;;;;;;134.63;87.23;;;2.50;99.90;;;;;;5091017;28;20216;-51
2023/03/15 04:51:57;;;;;;;55.87;25.77;;;2.60;99.90;;;;;;5090576;28;20279;-52
2023/03/15 04:54:24;;;;;;;173.03;63.83;;;2.60;99.90;;;;;;5090809;28;20570;-52
2023/03/15 04:56:53;;;;;;;178.97;70.60;;;2.60;99.90;;;;;;5090819;28;20204;-52
2023/03/15 04:59:21;;;;;;;992.33;249.87;;;2.60;99.90;;;;;;5090361;28;20290;-52
2023/03/15 05:01:50;;;;;;;116.77;52.47;;;2.50;99.90;;;;;;5090653;28;20767;-52
2023/03/15 05:04:18;;;;;;;123.53;64.33;;;2.50;99.90;;;;;;5090391;28;20264;-52
2023/03/15 05:06:46;;;;;;;104.07;81.33;;;2.40;99.90;;;;;;5090334;28;20310;-52
2023/03/15 05:09:17;;;;;;;113.10;72.07;;;2.40;99.90;;;;;;5090717;28;20212;-52
2023/03/15 05:11:46;;;;;;;314.17;78.53;;;2.40;99.90;;;;;;5090321;28;20765;-52
2023/03/15 05:14:14;;;;;;;85.30;52.70;;;2.40;99.90;;;;;;5090219;28;20614;-53
2023/03/15 05:16:42;;;;;;;68.20;38.30;;;2.50;99.90;;;;;;5090162;28;20708;-52
2023/03/15 05:19:11;;;;;;;183.73;99.90;;;2.60;99.90;;;;;;5090266;28;20210;-52
2023/03/15 05:21:39;;;;;;;155.07;50.20;;;2.60;99.90;;;;;;5090103;28;20224;-52
2023/03/15 05:24:08;;;;;;;210.47;66.10;;;2.50;99.90;;;;;;5089817;28;20766;-52
2023/03/15 05:26:35;;;;;;;45.53;23.17;;;2.50;99.90;;;;;;5090215;28;20215;-52
2023/03/15 05:29:03;;;;;;;319.97;118.13;;;2.60;99.90;;;;;;5090291;28;20209;-52
2023/03/15 05:31:35;;;;;;;181.23;64.47;;;2.60;99.90;;;;;;5090371;28;20220;-52
2023/03/15 05:34:04;;;;;;;114.10;62.80;;;2.60;99.90;;;;;;5090205;28;20233;-53
2023/03/15 05:36:34;;;;;;;119.90;49.60;;;2.60;99.90;;;;;;5090173;28;20204;-53
2023/03/15 05:39:02;;;;;;;57.43;34.03;;;2.60;99.90;;;;;;5090228;28;20291;-52
2023/03/15 05:41:31;;;;;;;162.43;46.60;;;2.60;99.90;;;;;;5089979;28;20210;-52
2023/03/15 05:43:59;;;;;;;502.20;96.93;;;2.60;99.90;;;;;;5089906;28;20608;-51
2023/03/15 05:46:27;;;;;;;56.77;29.67;;;2.60;99.90;;;;;;5089930;28;20231;-52
2023/03/15 05:48:55;;;;;;;377.60;92.93;;;2.60;99.90;;;;;;5089580;28;20218;-52
2023/03/15 05:51:23;;;;;;;64.20;19.57;;;2.60;99.90;;;;;;5089854;28;20244;-52
2023/03/15 05:53:52;;;;;;;104.30;44.47;;;2.60;99.90;;;;;;5089463;28;20313;-52
2023/03/15 05:56:20;;;;;;;297.23;101.50;;;2.70;99.90;;;;;;5089594;28;20653;-53
2023/03/15 05:58:48;;;;;;;117.87;58.23;;;2.70;99.90;;;;;;5089689;28;20292;-53
2023/03/15 06:01:16;;;;;;;42.77;36.47;;;2.70;99.90;;;;;;5089299;28;20639;-53
2023/03/15 06:03:44;;;;;;;44.57;25.97;;;2.70;99.90;;;;;;5089637;28;20715;-52
2023/03/15 06:06:12;;;;;;;223.93;60.53;;;2.70;99.90;;;;;;5089579;28;20218;-52
2023/03/15 06:08:40;;;;;;;247.53;110.73;;;2.70;99.90;;;;;;5089478;28;20713;-53
2023/03/15 06:11:09;;;;;;;67.37;29.37;;;2.70;99.90;;;;;;5089192;28;20246;-53
2023/03/15 06:13:37;;;;;;;143.37;71.17;;;2.70;99.90;;;;;;5089337;28;20716;-52
2023/03/15 06:16:06;;;;;;;137.43;66.87;;;2.80;99.90;;;;;;5089416;28;20303;-52
2023/03/15 06:18:34;;;;;;;240.43;106.93;;;2.80;99.90;;;;;;5089595;28;20248;-52
2023/03/15 06:21:02;;;;;;;149.33;68.50;;;2.80;99.90;;;;;;5089523;28;20251;-53
2023/03/15 06:23:30;;;;;;;62.10;37.23;;;2.80;99.90;;;;;;5089218;28;20318;-52
2023/03/15 06:25:58;;;;;;;135.90;69.73;;;2.90;99.90;;;;;;5089154;28;20211;-52
2023/03/15 06:28:27;;;;;;;226.47;84.23;;;2.90;99.90;;;;;;5089161;28;20203;-52
2023/03/15 06:30:55;;;;;;;118.37;56.37;;;2.90;99.90;;;;;;5089303;28;20228;-52
2023/03/15 06:33:24;;;;;;;71.50;34.67;;;2.90;99.90;;;;;;5088859;28;20221;-52
2023/03/15 06:35:51;;;;;;;79.60;57.17;;;2.90;99.90;;;;;;5089398;28;20206;-52
2023/03/15 06:38:20;;;;;;;123.03;68.83;;;3.00;99.90;;;;;;5088764;28;20310;-53
2023/03/15 06:40:47;;;;;;;232.10;92.13;;;2.90;99.90;;;;;;5088966;28;20839;-52
2023/03/15 06:43:18;;;;;;;71.13;55.43;;;3.00;99.90;;;;;;5079353;28;20316;-51
2023/03/15 06:45:48;;;;;;;175.33;94.20;;;3.00;99.90;;;;;;5085717;28;20575;-53
2023/03/15 06:48:16;;;;;;;347.07;101.80;;;3.10;99.90;;;;;;5088305;28;20207;-51
2023/03/15 06:50:44;;;;;;;118.87;79.13;;;3.10;99.90;;;;;;5088074;28;20213;-53
2023/03/15 06:53:16;;;;;;;75.30;40.57;;;3.20;99.90;;;;;;5077155;28;20250;-53
2023/03/15 06:55:45;;;;;;;84.50;33.37;;;3.20;99.90;;;;;;5078641;28;20248;-50
2023/03/15 06:58:13;;;;;;;163.17;54.17;;;3.20;99.90;;;;;;5093038;28;20246;-51
2023/03/15 07:00:41;;;;;;;107.83;57.90;;;3.30;99.90;;;;;;5092465;28;20228;-51
2023/03/15 07:03:11;;;;;;;69.97;43.03;;;3.30;99.90;;;;;;5092983;28;20235;-50
2023/03/15 07:05:39;;;;;;;202.23;55.07;;;3.40;99.90;;;;;;5092796;28;20701;-50
2023/03/15 07:08:07;;;;;;;146.33;50.10;;;3.40;99.90;;;;;;5092135;28;20307;-51
2023/03/15 07:10:35;;;;;;;91.73;54.17;;;3.50;99.90;;;;;;5093422;28;20303;-51
2023/03/15 07:13:05;;;;;;;165.03;62.23;;;3.60;99.90;;;;;;5092548;28;20230;-51
2023/03/15 07:15:35;;;;;;;66.40;45.17;;;3.60;99.90;;;;;;5092970;28;20234;-52
2023/03/15 07:18:04;;;;;;;54.90;33.90;;;3.70;99.90;;;;;;5092899;28;20293;-51
2023/03/15 07:20:33;;;;;;;90.33;60.70;;;3.80;99.90;;;;;;5092985;28;20237;-51
2023/03/15 07:23:04;;;;;;;78.70;39.77;;;3.90;99.90;;;;;;5092983;28;20307;-51
2023/03/15 07:25:32;;;;;;;119.07;76.73;;;3.90;99.90;;;;;;5092913;28;20306;-51
2023/03/15 07:28:19;;;;;;;61.13;35.90;;;3.90;99.90;;;;;;5093051;28;20189;-51
2023/03/15 07:30:53;;;;;;;92.97;45.53;;;3.90;99.90;;;;;;5092669;28;20733;-50
2023/03/15 07:33:22;;;;;;;118.77;55.23;;;3.90;99.90;;;;;;5092878;28;20314;-50
2023/03/15 07:35:53;;;;;;;51.47;26.90;;;3.80;99.90;;;;;;5092894;28;20448;-51
2023/03/15 07:38:21;;;;;;;91.73;42.60;;;3.80;99.90;;;;;;5092790;28;20214;-51
2023/03/15 07:40:49;;;;;;;68.27;38.57;;;3.80;99.90;;;;;;5092628;28;20337;-50
2023/03/15 07:43:18;;;;;;;63.37;42.03;;;3.90;99.90;;;;;;5092316;28;20272;-51
2023/03/15 07:45:46;;;;;;;80.00;47.83;;;4.10;99.90;;;;;;5092524;28;20326;-51
2023/03/15 07:48:14;;;;;;;43.43;27.40;;;4.20;99.90;;;;;;5092540;28;20301;-51
2023/03/15 07:50:42;;;;;;;182.27;98.67;;;4.30;99.90;;;;;;5091864;28;20208;-51
2023/03/15 07:53:11;;;;;;;90.83;54.60;;;4.40;99.90;;;;;;5092600;28;20310;-50
2023/03/15 07:55:39;;;;;;;160.17;79.93;;;4.50;99.90;;;;;;5092056;28;20235;-50
2023/03/15 07:58:07;;;;;;;84.53;60.47;;;4.50;99.90;;;;;;5092423;28;20294;-50
2023/03/15 08:00:35;;;;;;;451.47;129.43;;;4.70;99.90;;;;;;5092531;28;20201;-49
2023/03/15 08:03:04;;;;;;;166.17;57.83;;;4.70;99.90;;;;;;5091495;28;20663;-51
2023/03/15 08:05:32;;;;;;;121.23;61.30;;;4.60;99.90;;;;;;5091500;28;20653;-51
2023/03/15 08:08:00;;;;;;;72.33;44.73;;;4.60;99.90;;;;;;5091823;28;20250;-51
2023/03/15 08:10:30;;;;;;;81.57;55.23;;;4.60;99.90;;;;;;5091777;28;20243;-50
2023/03/15 08:12:58;;;;;;;159.77;44.57;;;4.60;99.90;;;;;;5091484;28;20236;-51
2023/03/15 08:15:26;;;;;;;53.73;39.73;;;4.70;99.90;;;;;;5091602;28;20211;-49
2023/03/15 08:17:54;;;;;;;356.77;84.87;;;5.10;99.90;;;;;;5091918;28;20243;-51
2023/03/15 08:20:22;;;;;;;98.77;54.93;;;5.50;99.90;;;;;;5091266;28;20699;-56
2023/03/15 08:22:50;;;;;;;310.23;137.87;;;5.50;99.90;;;;;;5091721;28;20228;-52
2023/03/15 08:25:22;;;;;;;483.97;135.87;;;5.30;99.90;;;;;;5091626;28;20283;-51
2023/03/15 08:27:52;;;;;;;519.47;175.33;;;5.20;99.90;;;;;;5091796;28;20640;-51
2023/03/15 08:30:21;;;;;;;89.87;39.73;;;5.50;99.90;;;;;;5091497;28;20300;-51
2023/03/15 08:32:51;;;;;;;392.07;156.60;;;5.90;99.90;;;;;;5091109;28;20740;-51
2023/03/15 08:35:21;;;;;;;984.97;219.20;;;6.10;99.90;;;;;;5091124;28;20295;-51
2023/03/15 08:37:51;;;;;;;457.87;193.47;;;6.40;99.90;;;;;;5091242;28;20703;-51
2023/03/15 08:40:23;;;;;;;88.63;73.40;;;6.20;99.90;;;;;;5090949;28;20694;-51
2023/03/15 08:42:53;;;;;;;597.97;247.87;;;6.10;99.90;;;;;;5091327;28;20231;-52
2023/03/15 08:45:24;;;;;;;521.37;277.67;;;6.00;99.90;;;;;;5090757;28;20289;-51
2023/03/15 08:47:55;;;;;;;232.00;72.43;;;5.90;99.90;;;;;;5072891;28;20246;-51
2023/03/15 08:50:25;;;;;;;1999.90;628.73;;;5.80;99.90;;;;;;5090069;28;20219;-51
2023/03/15 08:52:54;;;;;;;1999.90;867.13;;;5.60;99.90;;;;;;5091188;28;20237;-51
2023/03/15 08:55:22;;;;;;;553.77;235.50;;;5.50;99.90;;;;;;5090689;28;20204;-51
2023/03/15 08:57:52;;;;;;;581.00;177.30;;;5.40;99.90;;;;;;5089382;28;20309;-53
2023/03/15 09:00:21;;;;;;;729.87;309.50;;;5.30;99.90;;;;;;5090656;28;20246;-52
2023/03/15 09:02:52;;;;;;;1999.90;624.50;;;5.10;99.90;;;;;;5090552;28;20236;-51
2023/03/15 09:05:21;;;;;;;1999.90;483.70;;;4.80;99.90;;;;;;5090430;28;20235;-51
2023/03/15 09:07:51;;;;;;;388.20;239.37;;;4.70;99.90;;;;;;5089343;28;20294;-52
2023/03/15 09:10:20;;;;;;;1999.90;668.53;;;4.60;99.90;;;;;;5090531;28;20572;-51
2023/03/15 09:12:52;;;;;;;1004.07;305.33;;;4.50;99.90;;;;;;5090236;28;20285;-51
2023/03/15 09:15:21;;;;;;;480.87;242.17;;;4.50;99.90;;;;;;5089906;28;20212;-52
2023/03/15 09:17:50;;;;;;;126.20;108.07;;;4.40;99.90;;;;;;5090330;28;20207;-52
2023/03/15 09:20:21;;;;;;;68.90;48.10;;;4.50;99.90;;;;;;5089965;28;20299;-52
2023/03/15 09:22:54;;;;;;;106.07;77.13;;;4.70;99.90;;;;;;5089750;28;20220;-52
2023/03/15 09:25:24;;;;;;;374.67;113.23;;;5.10;99.90;;;;;;5089978;28;20324;-51
2023/03/15 09:27:52;;;;;;;1999.90;525.40;;;5.30;99.90;;;;;;5090047;28;20309;-52
2023/03/15 09:30:22;;;;;;;629.37;388.50;;;5.50;99.90;;;;;;5090058;28;20211;-52
2023/03/15 09:32:50;;;;;;;186.10;108.90;;;5.80;99.90;;;;;;5090224;28;20283;-52
2023/03/15 09:35:19;;;;;;;375.93;229.97;;;6.00;99.90;;;;;;5081677;28;20208;-52
2023/03/15 09:37:49;;;;;;;496.00;181.43;;;6.20;99.90;;;;;;5069842;28;20342;-52
2023/03/15 09:40:21;;;;;;;1999.90;798.37;;;6.40;99.90;;;;;;5070177;28;20242;-53
2023/03/15 09:43:01;;;;;;;1999.90;736.83;;;6.70;99.90;;;;;;5069813;28;20322;-52
2023/03/15 09:45:48;;;;;;;1135.43;376.37;;;6.80;99.90;;;;;;5069944;28;20216;-52
2023/03/15 09:48:21;;;;;;;1999.90;999.90;;;7.10;99.90;;;;;;5069937;28;20215;-51
2023/03/15 09:50:53;;;;;;;1663.77;378.93;;;7.20;99.90;;;;;;5070066;28;20218;-52
2023/03/15 09:53:26;;;;;;;1046.93;447.47;;;7.20;99.90;;;;;;5090054;28;20234;-52
2023/03/15 09:55:55;;;;;;;1999.90;927.63;;;7.40;99.90;;;;;;5089753;28;20840;-52
2023/03/15 09:58:28;;;;;;;1999.90;999.90;;;7.40;99.90;;;;;;5089373;28;20754;-52
2023/03/15 10:01:01;;;;;;;1728.60;599.87;;;7.30;99.90;;;;;;5090016;28;20235;-52
2023/03/15 10:03:35;;;;;;;1999.90;999.90;;;7.10;99.90;;;;;;5089313;28;20812;-52
2023/03/15 10:06:12;;;;;;;1999.90;868.33;;;6.60;99.90;;;;;;5077538;28;20230;-52
2023/03/15 10:08:41;;;;;;;1999.90;999.90;;;6.40;99.90;;;;;;5078804;28;20773;-51
2023/03/15 10:11:18;;;;;;;1999.90;999.90;;;6.30;99.90;;;;;;5089103;28;20298;-52
2023/03/15 10:14:01;;;;;;;1999.90;999.90;;;6.00;99.90;;;;;;5089045;28;20318;-52
2023/03/15 10:16:39;;;;;;;1286.60;848.33;;;6.00;99.90;;;;;;5088116;28;20213;-51
2023/03/15 10:19:17;;;;;;;1999.90;954.00;;;6.40;99.90;;;;;;5088885;28;20464;-51
2023/03/15 10:21:54;;;;;;;1999.90;999.90;;;6.90;99.90;;;;;;5088968;28;20287;-52
2023/03/15 10:24:31;;;;;;;1999.90;999.90;;;7.00;99.90;;;;;;5089407;28;20314;-51
2023/03/15 10:27:03;;;;;;;1999.90;879.87;;;6.80;99.90;;;;;;5088621;28;20302;-51
2023/03/15 10:29:31;;;;;;;1999.90;878.63;;;6.70;99.90;;;;;;5089088;28;20196;-52
2023/03/15 10:32:00;;;;;;;1999.90;999.90;;;6.60;99.90;;;;;;5088894;28;20643;-58
2023/03/15 10:34:29;;;;;;;1999.90;999.90;;;6.40;99.90;;;;;;5089451;28;20228;-52
2023/03/15 10:36:57;;;;;;;1999.90;999.90;;;6.30;99.90;;;;;;5080995;28;20694;-52
2023/03/15 10:39:25;;;;;;;1999.90;999.90;;;6.10;99.90;;;;;;5088754;28;20298;-52
2023/03/15 10:41:53;;;;;;;1999.90;999.90;;;6.00;99.90;;;;;;5089042;28;20276;-52
2023/03/15 10:44:25;;;;;;;1999.90;999.90;;;5.90;99.90;;;;;;5088732;28;20725;-52
2023/03/15 10:47:05;;;;;;;782.83;609.67;;;6.10;99.90;;;;;;5088990;28;20614;-52
2023/03/15 10:49:49;;;;;;;1993.67;999.90;;;6.40;99.90;;;;;;5089093;28;20201;-52
2023/03/15 10:52:30;;;;;;;1550.13;976.20;;;6.70;99.90;;;;;;5089124;28;20215;-52
2023/03/15 10:55:01;;;;;;;1999.90;781.33;;;7.00;99.90;;;;;;5089271;28;20259;-53
2023/03/15 10:57:37;;;;;;;1999.90;878.13;;;7.30;99.90;;;;;;5089186;28;20208;-51
2023/03/15 11:00:22;;;;;;;1999.90;960.00;;;7.60;99.90;;;;;;5088813;28;20662;-52
2023/03/15 11:03:00;;;;;;;1999.90;999.90;;;7.70;99.90;;;;;;5088928;28;20228;-51
2023/03/15 11:05:30;;;;;;;1999.90;999.90;;;7.70;99.90;;;;;;5088753;28;20212;-52
2023/03/15 11:08:00;;;;;;;1999.90;999.90;;;7.80;99.90;;;;;;5088998;28;20236;-52
2023/03/15 11:10:34;;;;;;;1999.90;999.90;;;7.80;99.90;;;;;;5088543;28;20657;-52
2023/03/15 11:13:20;;;;;;;1999.90;999.90;;;7.80;99.90;;;;;;5088629;28;20232;-52
2023/03/15 11:15:55;;;;;;;1999.90;999.90;;;7.60;99.90;;;;;;5088890;28;20212;-51
2023/03/15 11:18:31;;;;;;;1999.90;999.90;;;7.40;99.90;;;;;;5082922;28;20227;-51
2023/03/15 11:21:01;;;;;;;1999.90;999.90;;;7.30;99.90;;;;;;5067098;28;20254;-52
2023/03/15 11:23:36;;;;;;;1999.90;999.90;;;7.00;99.90;;;;;;5067779;28;20261;-52
2023/03/15 11:26:05;;;;;;;1997.03;999.90;;;7.00;99.90;;;;;;5067149;28;20275;-52
2023/03/15 11:28:36;;;;;;;1999.90;999.90;;;7.20;99.90;;;;;;5067351;28;20768;-51
2023/03/15 11:31:04;;;;;;;1999.90;999.90;;;7.50;99.90;;;;;;5066579;28;20239;-51
2023/03/15 11:33:41;;;;;;;1999.90;999.90;;;7.50;99.90;;;;;;5066966;28;20316;-51
2023/03/15 11:36:14;;;;;;;1999.90;999.90;;;7.60;99.90;;;;;;5067064;28;20286;-52
2023/03/15 11:38:44;;;;;;;1999.90;999.90;;;7.70;99.90;;;;;;5069289;28;20673;-52
2023/03/15 11:41:24;;;;;;;1999.90;999.90;;;7.60;99.90;;;;;;5087842;28;20200;-52
2023/03/15 11:44:02;;;;;;;1999.90;999.90;;;7.50;99.90;;;;;;5091491;28;20743;-50
2023/03/15 11:46:34;;;;;;;1999.90;999.90;;;7.60;99.90;;;;;;5091099;28;20680;-52
2023/03/15 11:49:14;;;;;;;1999.90;999.90;;;7.80;99.90;;;;;;5091329;28;20258;-51
2023/03/15 11:51:42;;;;;;;1999.90;999.90;;;7.70;99.90;;;;;;5091151;28;20203;-51
2023/03/15 11:54:14;;;;;;;1999.90;999.90;;;7.70;99.90;;;;;;5090997;28;20587;-51
2023/03/15 11:56:50;;;;;;;1999.90;999.90;;;7.60;99.90;;;;;;5091067;28;20220;-52
2023/03/15 11:59:20;;;;;;;1999.90;823.37;;;7.60;99.90;;;;;;5091113;28;20266;-51
2023/03/15 12:01:50;;;;;;;1999.90;965.27;;;7.60;99.90;;;;;;5090957;28;20231;-52
2023/03/15 12:04:50;;;;;;;1641.60;713.80;;;7.50;99.90;;;;;;5091018;28;20231;-52
2023/03/15 12:07:36;;;;;;;1999.90;966.10;;;7.50;99.90;;;;;;5070531;28;20725;-52
2023/03/15 12:10:34;;;;;;;1999.90;999.90;;;7.40;99.90;;;;;;5070396;28;20299;-52
2023/03/15 12:13:22;;;;;;;1999.90;999.90;;;7.30;99.90;;;;;;5050615;28;20331;-52
2023/03/15 12:15:52;;;;;;;1999.90;999.90;;;7.30;99.90;;;;;;5086781;28;20262;-52
2023/03/15 12:18:30;;;;;;;1999.90;999.90;;;7.30;99.90;;;;;;5091786;28;20224;-52
2023/03/15 12:21:21;;;;;;;1999.90;999.90;;;7.40;99.90;;;;;;5091429;28;20302;-52
2023/03/15 12:23:58;;;;;;;1999.90;999.90;;;7.60;99.90;;;;;;5091073;28;20260;-52
2023/03/15 12:26:32;;;;;;;1999.90;999.90;;;7.90;99.90;;;;;;5091487;28;20248;-51
2023/03/15 12:29:08;;;;;;;1999.90;935.93;;;8.00;99.90;;;;;;5079649;28;20390;-50
2023/03/15 12:32:04;;;;;;;1999.90;999.90;;;8.30;99.90;;;;;;5091042;28;20656;-52
2023/03/15 12:34:46;;;;;;;1999.90;999.90;;;8.50;99.90;;;;;;5090842;28;20327;-50
2023/03/15 12:37:19;;;;;;;1999.90;999.90;;;8.40;99.90;;;;;;5091074;28;20299;-52